createdAt,value
2018-12-19T00:00:33.527Z,2.6
2018-12-19T00:06:00.294Z,2.6
2018-12-19T00:16:57.270Z,2.6
2018-12-19T00:22:22.730Z,2.6
2018-12-19T00:27:49.538Z,2.6
2018-12-19T00:33:16.547Z,2.6
2018-12-19T00:38:44.250Z,2.5
2018-12-19T00:44:10.966Z,2.5
2018-12-19T00:49:38.764Z,2.5
2018-12-19T00:55:06.568Z,2.4
2018-12-19T01:00:34.426Z,2.4
2018-12-19T01:06:02.217Z,2.4
2018-12-19T01:11:28.943Z,2.4
2018-12-19T01:16:56.432Z,2.4
2018-12-19T01:22:22.536Z,2.4
2018-12-19T01:27:49.372Z,2.4
2018-12-19T01:33:16.117Z,2.4
2018-12-19T01:38:43.951Z,2.4
2018-12-19T01:44:10.942Z,2.4
2018-12-19T01:49:38.554Z,2.4
2018-12-19T01:55:05.374Z,2.4
2018-12-19T02:00:32.145Z,2.4
2018-12-19T02:05:59.983Z,2.4
2018-12-19T02:16:55.806Z,2.4
2018-12-19T02:22:22.344Z,2.4
2018-12-19T02:27:49.315Z,2.4
2018-12-19T02:33:16.942Z,2.4
2018-12-19T02:38:44.727Z,2.5
2018-12-19T02:44:11.602Z,2.5
2018-12-19T02:49:38.364Z,2.5
2018-12-19T02:55:06.154Z,2.5
2018-12-19T03:00:32.969Z,2.4
2018-12-19T03:05:59.757Z,2.4
2018-12-19T03:11:27.545Z,2.4
2018-12-19T03:16:55.706Z,2.4
2018-12-19T03:22:22.179Z,2.4
2018-12-19T03:27:48.977Z,2.4
2018-12-19T03:33:16.747Z,2.4
2018-12-19T03:38:43.540Z,2.4
2018-12-19T03:44:10.517Z,2.4
2018-12-19T03:49:37.108Z,2.4
2018-12-19T03:55:04.914Z,2.4
2018-12-19T04:00:31.883Z,2.5
2018-12-19T04:05:59.551Z,2.4
2018-12-19T04:11:27.306Z,2.4
2018-12-19T04:16:57.598Z,2.4
2018-12-19T04:22:21.925Z,2.4
2018-12-19T04:27:48.702Z,2.4
2018-12-19T04:33:15.531Z,2.4
2018-12-19T04:38:42.278Z,2.4
2018-12-19T04:44:09.056Z,2.4
2018-12-19T04:49:35.874Z,2.4
2018-12-19T04:55:03.702Z,2.4
2018-12-19T05:00:30.513Z,2.4
2018-12-19T05:05:57.373Z,2.3
2018-12-19T05:11:24.072Z,2.3
2018-12-19T05:16:51.904Z,2.3
2018-12-19T05:22:18.815Z,2.3
2018-12-19T05:27:45.580Z,2.3
2018-12-19T05:33:13.184Z,2.3
2018-12-19T05:38:39.954Z,2.2
2018-12-19T05:44:06.787Z,2.2
2018-12-19T05:49:33.649Z,2.2
2018-12-19T05:55:01.356Z,2.2
2018-12-19T06:00:28.178Z,2.2
2018-12-19T06:05:55.996Z,2.2
2018-12-19T06:11:23.634Z,2.2
2018-12-19T06:16:50.503Z,2.2
2018-12-19T06:22:18.239Z,2.2
2018-12-19T06:27:44.997Z,2.2
2018-12-19T06:33:12.779Z,2.2
2018-12-19T06:38:39.607Z,2.2
2018-12-19T06:44:07.338Z,2.2
2018-12-19T06:49:34.228Z,2.2
2018-12-19T06:55:01.018Z,2.2
2018-12-19T07:00:28.777Z,2.2
2018-12-19T07:05:55.511Z,2.2
2018-12-19T07:11:22.291Z,2.2
2018-12-19T07:16:49.074Z,2.2
2018-12-19T07:22:16.865Z,2.2
2018-12-19T07:27:43.643Z,2.2
2018-12-19T07:33:10.453Z,2.2
2018-12-19T07:38:37.888Z,2.2
2018-12-19T07:44:04.013Z,2.2
2018-12-19T07:49:30.792Z,2.2
2018-12-19T07:54:57.543Z,2.2
2018-12-19T08:00:27.511Z,2.2
2018-12-19T08:05:53.148Z,2.2
2018-12-19T08:11:19.931Z,2.2
2018-12-19T08:16:47.692Z,2.2
2018-12-19T08:22:15.482Z,2.2
2018-12-19T08:27:42.504Z,2.2
2018-12-19T08:33:10.090Z,2.2
2018-12-19T08:38:36.887Z,2.2
2018-12-19T08:44:03.616Z,2.3
2018-12-19T08:49:30.573Z,2.3
2018-12-19T08:54:58.338Z,2.3
2018-12-19T09:00:24.987Z,2.3
2018-12-19T09:05:52.789Z,2.4
2018-12-19T09:11:19.592Z,2.4
2018-12-19T09:16:47.419Z,2.4
2018-12-19T09:22:15.211Z,2.5
2018-12-19T09:27:42.022Z,2.5
2018-12-19T09:33:09.794Z,2.5
2018-12-19T09:38:36.648Z,2.5
2018-12-19T09:44:03.535Z,2.6
2018-12-19T09:49:30.267Z,2.6
2018-12-19T09:54:57.075Z,2.6
2018-12-19T10:00:23.940Z,2.6
2018-12-19T10:05:51.800Z,2.5
2018-12-19T10:11:19.484Z,2.5
2018-12-19T10:16:46.459Z,2.5
2018-12-19T10:22:13.103Z,2.5
2018-12-19T10:27:39.971Z,2.5
2018-12-19T10:33:06.676Z,2.6
2018-12-19T10:38:34.483Z,2.6
2018-12-19T10:44:02.426Z,2.7
2018-12-19T10:49:29.198Z,2.7
2018-12-19T10:54:55.981Z,2.8
2018-12-19T11:00:23.839Z,2.8
2018-12-19T11:05:54.251Z,2.9
2018-12-19T11:11:18.693Z,2.9
2018-12-19T11:16:45.350Z,2.9
2018-12-19T11:22:13.175Z,2.9
2018-12-19T11:27:40.015Z,2.9
2018-12-19T11:33:06.851Z,2.9
2018-12-19T11:38:33.678Z,2.9
2018-12-19T11:44:00.556Z,2.9
2018-12-19T11:49:28.358Z,2.9
2018-12-19T11:54:55.186Z,2.9
2018-12-19T12:00:22.078Z,2.9
2018-12-19T12:05:48.870Z,2.9
2018-12-19T12:11:15.680Z,2.9
2018-12-19T12:16:43.513Z,2.9
2018-12-19T12:22:10.395Z,2.9
2018-12-19T12:27:37.168Z,2.9
2018-12-19T12:33:05.014Z,3
2018-12-19T12:38:34.117Z,3
2018-12-19T12:43:59.803Z,3
2018-12-19T12:49:27.572Z,3
2018-12-19T12:54:54.394Z,3
2018-12-19T13:00:21.309Z,3
2018-12-19T13:05:48.075Z,3
2018-12-19T13:11:15.928Z,3
2018-12-19T13:16:42.716Z,3
2018-12-19T13:22:10.639Z,3
2018-12-19T13:27:37.402Z,3
2018-12-19T13:33:05.236Z,3
2018-12-19T13:38:33.070Z,3
2018-12-19T13:44:00.967Z,3
2018-12-19T13:49:27.810Z,3
2018-12-19T13:54:55.640Z,3.1
2018-12-19T14:00:22.498Z,3.1
2018-12-19T14:05:49.314Z,3.1
2018-12-19T14:11:17.151Z,3.1
2018-12-19T14:16:45.004Z,3.1
2018-12-19T14:22:12.866Z,3.1
2018-12-19T14:27:39.690Z,3.1
2018-12-19T14:33:06.542Z,3.1
2018-12-19T14:38:34.365Z,3.2
2018-12-19T14:44:01.325Z,3.2
2018-12-19T14:49:33.142Z,3.2
2018-12-19T14:54:54.915Z,3.2
2018-12-19T15:00:21.819Z,3.2
2018-12-19T15:05:48.627Z,3.2
2018-12-19T15:11:16.449Z,3.3
2018-12-19T15:16:44.318Z,3.3
2018-12-19T15:22:12.208Z,3.3
2018-12-19T15:27:40.040Z,3.3
2018-12-19T15:33:06.877Z,3.3
2018-12-19T15:38:33.792Z,3.3
2018-12-19T15:44:00.618Z,3.3
2018-12-19T15:49:28.473Z,3.3
2018-12-19T15:54:56.337Z,3.4
2018-12-19T16:00:23.223Z,3.4
2018-12-19T16:05:51.113Z,3.4
2018-12-19T16:11:18.907Z,3.4
2018-12-19T16:16:46.770Z,3.4
2018-12-19T16:22:13.667Z,3.4
2018-12-19T16:27:40.555Z,3.4
2018-12-19T16:33:08.381Z,3.4
2018-12-19T16:38:35.281Z,3.4
2018-12-19T16:44:02.157Z,3.5
2018-12-19T16:49:30.080Z,3.5
2018-12-19T16:54:56.847Z,3.5
2018-12-19T17:00:23.687Z,3.5
2018-12-19T17:05:50.655Z,3.5
2018-12-19T17:11:18.490Z,3.6
2018-12-19T17:16:45.354Z,3.6
2018-12-19T17:22:13.234Z,3.6
2018-12-19T17:27:40.134Z,3.6
2018-12-19T17:33:07.982Z,3.7
2018-12-19T17:38:35.962Z,3.7
2018-12-19T17:44:03.754Z,3.7
2018-12-19T17:49:31.650Z,3.7
2018-12-19T17:54:59.513Z,3.7
2018-12-19T18:00:26.411Z,3.7
2018-12-19T18:05:53.305Z,3.8
2018-12-19T18:11:21.333Z,3.8
2018-12-19T18:16:49.055Z,3.8
2018-12-19T18:22:15.976Z,3.8
2018-12-19T18:27:43.875Z,3.8
2018-12-19T18:33:11.752Z,3.8
2018-12-19T18:38:38.706Z,3.8
2018-12-19T18:44:05.537Z,3.8
2018-12-19T18:49:32.635Z,3.8
2018-12-19T18:54:59.339Z,3.9
2018-12-19T19:00:26.264Z,3.9
2018-12-19T19:05:54.104Z,3.9
2018-12-19T19:11:20.997Z,3.9
2018-12-19T19:16:47.885Z,3.9
2018-12-19T19:22:14.777Z,3.9
2018-12-19T19:27:42.709Z,4
2018-12-19T19:33:10.641Z,4
2018-12-19T19:38:37.497Z,4
2018-12-19T19:44:05.399Z,4
2018-12-19T19:49:32.408Z,4
2018-12-19T19:54:59.223Z,4
2018-12-19T20:00:27.137Z,4
2018-12-19T20:05:55.017Z,4
2018-12-19T20:11:21.935Z,4
2018-12-19T20:16:48.849Z,4.1
2018-12-19T20:22:16.764Z,4.1
2018-12-19T20:27:43.680Z,4.1
2018-12-19T20:33:11.594Z,4
2018-12-19T20:38:39.479Z,3.9
2018-12-19T20:44:06.372Z,3.9
2018-12-19T20:49:34.270Z,3.9
2018-12-19T20:55:02.238Z,3.9
2018-12-19T21:00:30.067Z,3.9
2018-12-19T21:05:56.989Z,3.9
2018-12-19T21:11:23.882Z,4
2018-12-19T21:16:51.774Z,4
2018-12-19T21:22:19.697Z,4
2018-12-19T21:27:46.573Z,4.1
2018-12-19T21:33:14.049Z,4.1
2018-12-19T21:38:41.415Z,4.1
2018-12-19T21:44:08.342Z,4.1
2018-12-19T21:49:35.226Z,4.1
2018-12-19T21:55:02.168Z,4.1
2018-12-19T22:00:29.038Z,4.1
2018-12-19T22:05:56.962Z,4.1
2018-12-19T22:11:23.955Z,4
2018-12-19T22:16:50.785Z,4
2018-12-19T22:22:17.771Z,4
2018-12-19T22:27:45.578Z,3.9
2018-12-19T22:33:12.434Z,3.9
2018-12-19T22:38:40.348Z,3.8
2018-12-19T22:44:07.960Z,3.8
2018-12-19T22:49:35.092Z,3.8
2018-12-19T22:55:02.008Z,3.8
2018-12-19T23:00:29.896Z,3.8
2018-12-19T23:05:56.829Z,3.8
2018-12-19T23:11:24.616Z,3.8
2018-12-19T23:16:51.610Z,3.8
2018-12-19T23:22:18.477Z,3.8
2018-12-19T23:27:45.274Z,3.9
2018-12-19T23:33:12.268Z,3.9
2018-12-19T23:38:40.112Z,3.9
2018-12-19T23:44:07.969Z,3.9
2018-12-19T23:49:35.954Z,3.9
2018-12-19T23:55:03.837Z,4
